sensor_id;sensor_type;location;lat;lon;timestamp;temperature;humidity
21807;DHT22;11065;50.786;7.840;2022-07-10T00:01:27;17.50;50.30
21807;DHT22;11065;50.786;7.840;2022-07-10T00:03:54;17.50;50.40
21807;DHT22;11065;50.786;7.840;2022-07-10T00:06:21;17.60;50.50
21807;DHT22;11065;50.786;7.840;2022-07-10T00:08:48;17.50;50.50
21807;DHT22;11065;50.786;7.840;2022-07-10T00:11:15;17.50;50.40
21807;DHT22;11065;50.786;7.840;2022-07-10T00:13:42;17.50;50.50
21807;DHT22;11065;50.786;7.840;2022-07-10T00:16:09;17.50;50.40
21807;DHT22;11065;50.786;7.840;2022-07-10T00:18:36;17.50;50.30
21807;DHT22;11065;50.786;7.840;2022-07-10T00:21:03;17.40;50.10
21807;DHT22;11065;50.786;7.840;2022-07-10T00:23:30;17.40;50.00
21807;DHT22;11065;50.786;7.840;2022-07-10T00:25:57;17.30;50.00
21807;DHT22;11065;50.786;7.840;2022-07-10T00:28:24;17.40;49.90
21807;DHT22;11065;50.786;7.840;2022-07-10T00:30:51;17.30;49.90
21807;DHT22;11065;50.786;7.840;2022-07-10T00:33:18;17.30;49.90
21807;DHT22;11065;50.786;7.840;2022-07-10T00:35:45;17.30;49.80
21807;DHT22;11065;50.786;7.840;2022-07-10T00:38:12;17.20;49.70
21807;DHT22;11065;50.786;7.840;2022-07-10T00:40:39;17.20;49.70
21807;DHT22;11065;50.786;7.840;2022-07-10T00:43:08;17.20;49.90
21807;DHT22;11065;50.786;7.840;2022-07-10T00:45:36;17.10;49.90
21807;DHT22;11065;50.786;7.840;2022-07-10T00:48:03;17.00;49.80
21807;DHT22;11065;50.786;7.840;2022-07-10T00:50:30;17.00;49.90
21807;DHT22;11065;50.786;7.840;2022-07-10T00:52:58;17.00;49.90
21807;DHT22;11065;50.786;7.840;2022-07-10T00:55:25;16.90;49.80
21807;DHT22;11065;50.786;7.840;2022-07-10T00:57:51;17.00;49.80
21807;DHT22;11065;50.786;7.840;2022-07-10T01:00:18;16.80;49.80
21807;DHT22;11065;50.786;7.840;2022-07-10T01:02:45;16.70;49.80
21807;DHT22;11065;50.786;7.840;2022-07-10T01:05:13;16.80;49.80
21807;DHT22;11065;50.786;7.840;2022-07-10T01:07:40;16.70;49.90
21807;DHT22;11065;50.786;7.840;2022-07-10T01:10:07;16.70;50.00
21807;DHT22;11065;50.786;7.840;2022-07-10T01:12:34;16.60;50.00
21807;DHT22;11065;50.786;7.840;2022-07-10T01:15:01;16.60;50.10
21807;DHT22;11065;50.786;7.840;2022-07-10T01:17:28;16.60;50.10
21807;DHT22;11065;50.786;7.840;2022-07-10T01:19:56;16.40;50.10
21807;DHT22;11065;50.786;7.840;2022-07-10T01:22:23;16.40;50.10
21807;DHT22;11065;50.786;7.840;2022-07-10T01:24:50;16.30;50.10
21807;DHT22;11065;50.786;7.840;2022-07-10T01:27:17;16.40;50.20
21807;DHT22;11065;50.786;7.840;2022-07-10T01:29:44;16.30;50.20
21807;DHT22;11065;50.786;7.840;2022-07-10T01:32:11;16.20;50.30
21807;DHT22;11065;50.786;7.840;2022-07-10T01:34:39;16.10;50.30
21807;DHT22;11065;50.786;7.840;2022-07-10T01:37:06;16.10;50.30
21807;DHT22;11065;50.786;7.840;2022-07-10T01:39:33;16.00;50.30
21807;DHT22;11065;50.786;7.840;2022-07-10T01:42:00;16.00;50.30
21807;DHT22;11065;50.786;7.840;2022-07-10T01:44:27;15.90;50.30
21807;DHT22;11065;50.786;7.840;2022-07-10T01:46:54;16.00;50.40
21807;DHT22;11065;50.786;7.840;2022-07-10T01:49:21;15.80;50.20
21807;DHT22;11065;50.786;7.840;2022-07-10T01:51:47;15.70;50.30
21807;DHT22;11065;50.786;7.840;2022-07-10T01:54:14;15.70;50.30
21807;DHT22;11065;50.786;7.840;2022-07-10T01:56:41;15.70;50.40
21807;DHT22;11065;50.786;7.840;2022-07-10T01:59:08;15.60;50.40
21807;DHT22;11065;50.786;7.840;2022-07-10T02:01:35;15.60;50.40
21807;DHT22;11065;50.786;7.840;2022-07-10T02:04:03;15.50;50.40
21807;DHT22;11065;50.786;7.840;2022-07-10T02:06:49;15.50;50.50
21807;DHT22;11065;50.786;7.840;2022-07-10T02:09:15;15.40;50.40
21807;DHT22;11065;50.786;7.840;2022-07-10T02:11:42;15.40;50.50
21807;DHT22;11065;50.786;7.840;2022-07-10T02:14:09;15.30;50.50
21807;DHT22;11065;50.786;7.840;2022-07-10T02:16:36;15.30;50.50
21807;DHT22;11065;50.786;7.840;2022-07-10T02:19:04;15.20;50.60
21807;DHT22;11065;50.786;7.840;2022-07-10T02:21:31;15.20;50.60
21807;DHT22;11065;50.786;7.840;2022-07-10T02:23:58;15.20;50.60
21807;DHT22;11065;50.786;7.840;2022-07-10T02:26:25;15.10;50.70
21807;DHT22;11065;50.786;7.840;2022-07-10T02:28:52;15.00;50.80
21807;DHT22;11065;50.786;7.840;2022-07-10T02:31:19;15.00;50.80
21807;DHT22;11065;50.786;7.840;2022-07-10T02:33:45;14.90;50.80
21807;DHT22;11065;50.786;7.840;2022-07-10T02:36:13;14.90;50.90
21807;DHT22;11065;50.786;7.840;2022-07-10T02:38:39;14.80;50.80
21807;DHT22;11065;50.786;7.840;2022-07-10T02:41:07;14.80;50.90
21807;DHT22;11065;50.786;7.840;2022-07-10T02:43:34;14.80;50.90
21807;DHT22;11065;50.786;7.840;2022-07-10T02:46:01;14.70;50.90
21807;DHT22;11065;50.786;7.840;2022-07-10T02:48:28;14.70;51.00
21807;DHT22;11065;50.786;7.840;2022-07-10T02:50:55;14.70;51.20
21807;DHT22;11065;50.786;7.840;2022-07-10T02:53:22;14.60;51.30
21807;DHT22;11065;50.786;7.840;2022-07-10T02:55:49;14.60;51.30
21807;DHT22;11065;50.786;7.840;2022-07-10T02:58:16;14.60;51.30
21807;DHT22;11065;50.786;7.840;2022-07-10T03:00:44;14.60;51.30
21807;DHT22;11065;50.786;7.840;2022-07-10T03:03:11;14.50;51.30
21807;DHT22;11065;50.786;7.840;2022-07-10T03:05:38;14.50;51.30
21807;DHT22;11065;50.786;7.840;2022-07-10T03:08:05;14.50;51.40
21807;DHT22;11065;50.786;7.840;2022-07-10T03:10:32;14.40;51.50
21807;DHT22;11065;50.786;7.840;2022-07-10T03:12:58;14.40;51.50
21807;DHT22;11065;50.786;7.840;2022-07-10T03:15:25;14.40;51.50
21807;DHT22;11065;50.786;7.840;2022-07-10T03:17:52;14.50;51.60
21807;DHT22;11065;50.786;7.840;2022-07-10T03:20:19;14.50;51.70
21807;DHT22;11065;50.786;7.840;2022-07-10T03:22:46;14.30;51.60
21807;DHT22;11065;50.786;7.840;2022-07-10T03:25:13;14.30;51.60
21807;DHT22;11065;50.786;7.840;2022-07-10T03:27:40;14.30;51.70
21807;DHT22;11065;50.786;7.840;2022-07-10T03:30:08;14.30;51.70
21807;DHT22;11065;50.786;7.840;2022-07-10T03:32:35;14.30;51.70
21807;DHT22;11065;50.786;7.840;2022-07-10T03:35:02;14.30;51.70
21807;DHT22;11065;50.786;7.840;2022-07-10T03:37:29;14.20;51.60
21807;DHT22;11065;50.786;7.840;2022-07-10T03:39:56;14.20;51.70
21807;DHT22;11065;50.786;7.840;2022-07-10T03:42:23;14.20;51.70
21807;DHT22;11065;50.786;7.840;2022-07-10T03:44:49;14.10;51.80
21807;DHT22;11065;50.786;7.840;2022-07-10T03:47:16;14.10;51.90
21807;DHT22;11065;50.786;7.840;2022-07-10T03:49:43;14.10;52.00
21807;DHT22;11065;50.786;7.840;2022-07-10T03:52:10;14.20;52.10
21807;DHT22;11065;50.786;7.840;2022-07-10T03:54:37;14.10;52.30
21807;DHT22;11065;50.786;7.840;2022-07-10T03:57:04;14.10;52.40
21807;DHT22;11065;50.786;7.840;2022-07-10T03:59:50;14.10;52.50
21807;DHT22;11065;50.786;7.840;2022-07-10T04:02:17;14.10;52.50
21807;DHT22;11065;50.786;7.840;2022-07-10T04:04:44;14.30;52.70
21807;DHT22;11065;50.786;7.840;2022-07-10T04:07:12;14.20;52.70
21807;DHT22;11065;50.786;7.840;2022-07-10T04:09:39;14.20;52.80
21807;DHT22;11065;50.786;7.840;2022-07-10T04:12:06;14.20;52.80
21807;DHT22;11065;50.786;7.840;2022-07-10T04:14:33;14.20;52.80
21807;DHT22;11065;50.786;7.840;2022-07-10T04:17:00;14.30;52.80
21807;DHT22;11065;50.786;7.840;2022-07-10T04:19:27;14.20;52.80
21807;DHT22;11065;50.786;7.840;2022-07-10T04:21:54;14.30;52.80
21807;DHT22;11065;50.786;7.840;2022-07-10T04:24:22;14.20;52.80
21807;DHT22;11065;50.786;7.840;2022-07-10T04:26:49;14.30;52.90
21807;DHT22;11065;50.786;7.840;2022-07-10T04:29:15;14.30;53.00
21807;DHT22;11065;50.786;7.840;2022-07-10T04:31:43;14.30;53.10
21807;DHT22;11065;50.786;7.840;2022-07-10T04:34:10;14.30;53.20
21807;DHT22;11065;50.786;7.840;2022-07-10T04:36:37;14.30;53.20
21807;DHT22;11065;50.786;7.840;2022-07-10T04:39:03;14.40;53.30
21807;DHT22;11065;50.786;7.840;2022-07-10T04:41:30;14.40;53.30
21807;DHT22;11065;50.786;7.840;2022-07-10T04:43:57;14.40;53.30
21807;DHT22;11065;50.786;7.840;2022-07-10T04:46:24;14.50;53.40
21807;DHT22;11065;50.786;7.840;2022-07-10T04:48:51;14.50;53.40
21807;DHT22;11065;50.786;7.840;2022-07-10T04:51:18;14.50;53.50
21807;DHT22;11065;50.786;7.840;2022-07-10T04:53:45;14.60;53.60
21807;DHT22;11065;50.786;7.840;2022-07-10T04:56:12;14.60;53.60
21807;DHT22;11065;50.786;7.840;2022-07-10T04:58:38;14.70;53.70
21807;DHT22;11065;50.786;7.840;2022-07-10T05:01:06;14.70;53.60
21807;DHT22;11065;50.786;7.840;2022-07-10T05:03:33;14.80;53.70
21807;DHT22;11065;50.786;7.840;2022-07-10T05:06:00;14.90;53.70
21807;DHT22;11065;50.786;7.840;2022-07-10T05:08:27;15.00;53.70
21807;DHT22;11065;50.786;7.840;2022-07-10T05:10:53;15.00;53.80
21807;DHT22;11065;50.786;7.840;2022-07-10T05:13:20;15.00;53.80
21807;DHT22;11065;50.786;7.840;2022-07-10T05:15:48;15.10;53.90
21807;DHT22;11065;50.786;7.840;2022-07-10T05:18:15;15.20;53.80
21807;DHT22;11065;50.786;7.840;2022-07-10T05:20:42;15.30;53.70
21807;DHT22;11065;50.786;7.840;2022-07-10T05:23:10;15.30;53.60
21807;DHT22;11065;50.786;7.840;2022-07-10T05:25:38;15.40;53.60
21807;DHT22;11065;50.786;7.840;2022-07-10T05:28:05;15.60;53.60
21807;DHT22;11065;50.786;7.840;2022-07-10T05:30:32;15.60;53.60
21807;DHT22;11065;50.786;7.840;2022-07-10T05:32:59;15.60;53.40
21807;DHT22;11065;50.786;7.840;2022-07-10T05:35:27;15.70;53.50
21807;DHT22;11065;50.786;7.840;2022-07-10T05:37:53;15.80;53.40
21807;DHT22;11065;50.786;7.840;2022-07-10T05:40:20;15.80;53.30
21807;DHT22;11065;50.786;7.840;2022-07-10T05:42:47;16.00;53.40
21807;DHT22;11065;50.786;7.840;2022-07-10T05:45:14;16.00;53.40
21807;DHT22;11065;50.786;7.840;2022-07-10T05:47:41;16.10;53.30
21807;DHT22;11065;50.786;7.840;2022-07-10T05:50:08;16.10;53.20
21807;DHT22;11065;50.786;7.840;2022-07-10T05:52:35;16.20;53.30
21807;DHT22;11065;50.786;7.840;2022-07-10T05:55:03;16.30;53.40
21807;DHT22;11065;50.786;7.840;2022-07-10T05:57:30;16.30;53.20
21807;DHT22;11065;50.786;7.840;2022-07-10T06:00:02;16.40;53.10
21807;DHT22;11065;50.786;7.840;2022-07-10T06:02:37;16.40;53.00
21807;DHT22;11065;50.786;7.840;2022-07-10T06:05:04;16.50;52.90
21807;DHT22;11065;50.786;7.840;2022-07-10T06:07:32;16.50;52.80
21807;DHT22;11065;50.786;7.840;2022-07-10T06:09:59;16.60;53.00
21807;DHT22;11065;50.786;7.840;2022-07-10T06:12:26;16.60;53.00
21807;DHT22;11065;50.786;7.840;2022-07-10T06:14:53;16.70;52.90
21807;DHT22;11065;50.786;7.840;2022-07-10T06:17:20;16.70;52.80
21807;DHT22;11065;50.786;7.840;2022-07-10T06:19:46;16.80;52.70
21807;DHT22;11065;50.786;7.840;2022-07-10T06:22:13;16.90;52.60
21807;DHT22;11065;50.786;7.840;2022-07-10T06:24:59;16.90;52.60
21807;DHT22;11065;50.786;7.840;2022-07-10T06:27:27;16.90;52.50
21807;DHT22;11065;50.786;7.840;2022-07-10T06:29:54;17.00;52.50
21807;DHT22;11065;50.786;7.840;2022-07-10T06:32:21;17.00;52.50
21807;DHT22;11065;50.786;7.840;2022-07-10T06:34:48;17.10;52.50
21807;DHT22;11065;50.786;7.840;2022-07-10T06:37:15;17.10;52.40
21807;DHT22;11065;50.786;7.840;2022-07-10T06:39:42;17.20;52.50
21807;DHT22;11065;50.786;7.840;2022-07-10T06:42:09;17.10;52.40
21807;DHT22;11065;50.786;7.840;2022-07-10T06:44:43;17.30;52.40
21807;DHT22;11065;50.786;7.840;2022-07-10T06:47:15;17.30;52.30
21807;DHT22;11065;50.786;7.840;2022-07-10T06:50:05;17.50;52.10
21807;DHT22;11065;50.786;7.840;2022-07-10T06:52:36;17.50;51.90
21807;DHT22;11065;50.786;7.840;2022-07-10T06:55:04;17.50;51.60
21807;DHT22;11065;50.786;7.840;2022-07-10T06:57:31;17.50;51.50
21807;DHT22;11065;50.786;7.840;2022-07-10T06:59:58;17.60;51.90
21807;DHT22;11065;50.786;7.840;2022-07-10T07:02:25;17.60;51.50
21807;DHT22;11065;50.786;7.840;2022-07-10T07:04:52;17.70;51.50
21807;DHT22;11065;50.786;7.840;2022-07-10T07:07:19;17.70;51.30
21807;DHT22;11065;50.786;7.840;2022-07-10T07:09:51;17.60;51.00
21807;DHT22;11065;50.786;7.840;2022-07-10T07:12:18;17.60;51.10
21807;DHT22;11065;50.786;7.840;2022-07-10T07:14:45;17.70;51.20
21807;DHT22;11065;50.786;7.840;2022-07-10T07:17:11;17.70;51.20
21807;DHT22;11065;50.786;7.840;2022-07-10T07:19:41;17.80;51.30
21807;DHT22;11065;50.786;7.840;2022-07-10T07:22:26;17.90;51.50
21807;DHT22;11065;50.786;7.840;2022-07-10T07:25:11;18.00;51.60
21807;DHT22;11065;50.786;7.840;2022-07-10T07:27:39;18.20;51.60
21807;DHT22;11065;50.786;7.840;2022-07-10T07:30:08;18.30;51.50
21807;DHT22;11065;50.786;7.840;2022-07-10T07:32:38;18.40;51.10
21807;DHT22;11065;50.786;7.840;2022-07-10T07:35:06;18.60;50.80
21807;DHT22;11065;50.786;7.840;2022-07-10T07:37:40;18.60;50.50
21807;DHT22;11065;50.786;7.840;2022-07-10T07:40:09;18.60;50.10
21807;DHT22;11065;50.786;7.840;2022-07-10T07:42:37;18.70;50.30
21807;DHT22;11065;50.786;7.840;2022-07-10T07:45:04;18.70;50.20
21807;DHT22;11065;50.786;7.840;2022-07-10T07:47:52;18.70;50.20
21807;DHT22;11065;50.786;7.840;2022-07-10T07:50:21;18.80;50.10
21807;DHT22;11065;50.786;7.840;2022-07-10T07:52:49;18.90;50.10
21807;DHT22;11065;50.786;7.840;2022-07-10T07:55:17;19.00;50.10
21807;DHT22;11065;50.786;7.840;2022-07-10T07:57:45;19.10;49.90
21807;DHT22;11065;50.786;7.840;2022-07-10T08:00:14;19.10;49.70
21807;DHT22;11065;50.786;7.840;2022-07-10T08:02:44;19.20;49.80
21807;DHT22;11065;50.786;7.840;2022-07-10T08:05:11;19.30;50.00
21807;DHT22;11065;50.786;7.840;2022-07-10T08:07:39;19.50;50.10
21807;DHT22;11065;50.786;7.840;2022-07-10T08:10:11;19.60;49.90
21807;DHT22;11065;50.786;7.840;2022-07-10T08:12:40;19.80;49.30
21807;DHT22;11065;50.786;7.840;2022-07-10T08:15:11;20.00;49.70
21807;DHT22;11065;50.786;7.840;2022-07-10T08:17:39;20.00;48.20
21807;DHT22;11065;50.786;7.840;2022-07-10T08:20:11;20.00;48.20
21807;DHT22;11065;50.786;7.840;2022-07-10T08:22:39;20.00;47.90
21807;DHT22;11065;50.786;7.840;2022-07-10T08:25:07;20.10;48.00
21807;DHT22;11065;50.786;7.840;2022-07-10T08:27:34;20.20;48.00
21807;DHT22;11065;50.786;7.840;2022-07-10T08:30:03;20.30;48.00
21807;DHT22;11065;50.786;7.840;2022-07-10T08:32:30;20.30;47.80
21807;DHT22;11065;50.786;7.840;2022-07-10T08:34:56;20.40;47.50
21807;DHT22;11065;50.786;7.840;2022-07-10T08:37:25;20.40;47.60
21807;DHT22;11065;50.786;7.840;2022-07-10T08:39:51;20.60;47.60
21807;DHT22;11065;50.786;7.840;2022-07-10T08:42:19;20.60;47.60
21807;DHT22;11065;50.786;7.840;2022-07-10T08:44:47;20.70;47.40
21807;DHT22;11065;50.786;7.840;2022-07-10T08:47:14;20.70;47.10
21807;DHT22;11065;50.786;7.840;2022-07-10T08:49:48;20.80;46.60
21807;DHT22;11065;50.786;7.840;2022-07-10T08:53:23;20.90;46.10
21807;DHT22;11065;50.786;7.840;2022-07-10T08:55:26;21.00;45.60
21807;DHT22;11065;50.786;7.840;2022-07-10T08:57:54;21.10;46.30
21807;DHT22;11065;50.786;7.840;2022-07-10T09:00:25;21.10;45.60
21807;DHT22;11065;50.786;7.840;2022-07-10T09:02:55;21.20;45.80
21807;DHT22;11065;50.786;7.840;2022-07-10T09:05:26;21.10;45.50
21807;DHT22;11065;50.786;7.840;2022-07-10T09:07:53;21.20;45.30
21807;DHT22;11065;50.786;7.840;2022-07-10T09:10:24;21.10;45.60
21807;DHT22;11065;50.786;7.840;2022-07-10T09:12:53;21.30;45.70
21807;DHT22;11065;50.786;7.840;2022-07-10T09:15:22;21.20;45.50
21807;DHT22;11065;50.786;7.840;2022-07-10T09:17:58;21.20;45.10
21807;DHT22;11065;50.786;7.840;2022-07-10T09:20:27;21.30;45.20
21807;DHT22;11065;50.786;7.840;2022-07-10T09:22:58;21.40;45.40
21807;DHT22;11065;50.786;7.840;2022-07-10T09:25:32;21.40;44.90
21807;DHT22;11065;50.786;7.840;2022-07-10T09:28:01;21.60;45.00
21807;DHT22;11065;50.786;7.840;2022-07-10T09:30:34;21.70;44.90
21807;DHT22;11065;50.786;7.840;2022-07-10T09:33:24;21.70;44.60
21807;DHT22;11065;50.786;7.840;2022-07-10T09:36:09;21.80;43.50
21807;DHT22;11065;50.786;7.840;2022-07-10T09:41:14;21.80;44.30
21807;DHT22;11065;50.786;7.840;2022-07-10T09:43:48;21.70;43.90
21807;DHT22;11065;50.786;7.840;2022-07-10T09:46:17;21.70;43.90
21807;DHT22;11065;50.786;7.840;2022-07-10T09:48:44;21.70;44.20
21807;DHT22;11065;50.786;7.840;2022-07-10T09:51:11;21.60;44.40
21807;DHT22;11065;50.786;7.840;2022-07-10T09:53:41;21.60;44.10
21807;DHT22;11065;50.786;7.840;2022-07-10T09:56:09;21.60;44.00
21807;DHT22;11065;50.786;7.840;2022-07-10T09:58:37;21.60;44.10
21807;DHT22;11065;50.786;7.840;2022-07-10T10:01:08;21.50;44.40
21807;DHT22;11065;50.786;7.840;2022-07-10T10:03:37;21.60;44.40
21807;DHT22;11065;50.786;7.840;2022-07-10T10:06:12;21.70;44.40
21807;DHT22;11065;50.786;7.840;2022-07-10T10:09:07;21.70;44.30
21807;DHT22;11065;50.786;7.840;2022-07-10T10:11:36;21.80;44.10
21807;DHT22;11065;50.786;7.840;2022-07-10T10:14:07;21.90;44.70
21807;DHT22;11065;50.786;7.840;2022-07-10T10:16:35;21.90;44.60
21807;DHT22;11065;50.786;7.840;2022-07-10T10:19:03;22.10;44.90
21807;DHT22;11065;50.786;7.840;2022-07-10T10:21:49;22.30;44.80
21807;DHT22;11065;50.786;7.840;2022-07-10T10:24:16;22.40;44.90
21807;DHT22;11065;50.786;7.840;2022-07-10T10:26:44;22.60;44.90
21807;DHT22;11065;50.786;7.840;2022-07-10T10:29:11;22.80;44.80
21807;DHT22;11065;50.786;7.840;2022-07-10T10:31:39;23.00;44.60
21807;DHT22;11065;50.786;7.840;2022-07-10T10:34:08;23.10;44.10
21807;DHT22;11065;50.786;7.840;2022-07-10T10:36:42;23.10;43.80
21807;DHT22;11065;50.786;7.840;2022-07-10T10:41:42;23.10;43.20
21807;DHT22;11065;50.786;7.840;2022-07-10T10:46:54;23.10;43.40
21807;DHT22;11065;50.786;7.840;2022-07-10T10:49:54;23.10;42.90
21807;DHT22;11065;50.786;7.840;2022-07-10T10:52:23;23.00;42.80
21807;DHT22;11065;50.786;7.840;2022-07-10T10:57:36;23.00;43.30
21807;DHT22;11065;50.786;7.840;2022-07-10T11:00:07;23.00;43.20
21807;DHT22;11065;50.786;7.840;2022-07-10T11:02:36;23.00;43.40
21807;DHT22;11065;50.786;7.840;2022-07-10T11:07:56;22.90;43.50
21807;DHT22;11065;50.786;7.840;2022-07-10T11:10:35;23.00;43.60
21807;DHT22;11065;50.786;7.840;2022-07-10T11:13:13;23.00;43.70
21807;DHT22;11065;50.786;7.840;2022-07-10T11:15:41;23.10;43.60
21807;DHT22;11065;50.786;7.840;2022-07-10T11:18:11;23.20;43.90
21807;DHT22;11065;50.786;7.840;2022-07-10T11:20:43;23.30;43.80
21807;DHT22;11065;50.786;7.840;2022-07-10T11:26:35;23.50;43.40
21807;DHT22;11065;50.786;7.840;2022-07-10T11:29:05;23.60;43.70
21807;DHT22;11065;50.786;7.840;2022-07-10T11:31:33;23.70;43.60
21807;DHT22;11065;50.786;7.840;2022-07-10T11:34:11;23.80;43.50
21807;DHT22;11065;50.786;7.840;2022-07-10T11:36:39;23.90;43.40
21807;DHT22;11065;50.786;7.840;2022-07-10T11:39:07;24.00;43.30
21807;DHT22;11065;50.786;7.840;2022-07-10T11:41:42;24.00;43.10
21807;DHT22;11065;50.786;7.840;2022-07-10T11:44:17;24.10;43.30
21807;DHT22;11065;50.786;7.840;2022-07-10T11:46:44;24.20;43.50
21807;DHT22;11065;50.786;7.840;2022-07-10T11:49:13;24.40;43.60
21807;DHT22;11065;50.786;7.840;2022-07-10T11:51:42;24.60;42.90
21807;DHT22;11065;50.786;7.840;2022-07-10T11:54:14;24.60;42.80
21807;DHT22;11065;50.786;7.840;2022-07-10T11:56:50;24.60;42.50
21807;DHT22;11065;50.786;7.840;2022-07-10T11:59:25;24.70;42.20
21807;DHT22;11065;50.786;7.840;2022-07-10T12:01:55;24.60;42.20
21807;DHT22;11065;50.786;7.840;2022-07-10T12:04:23;24.50;42.30
21807;DHT22;11065;50.786;7.840;2022-07-10T12:06:53;24.40;42.20
21807;DHT22;11065;50.786;7.840;2022-07-10T12:09:21;24.30;42.00
21807;DHT22;11065;50.786;7.840;2022-07-10T12:12:05;24.20;42.10
21807;DHT22;11065;50.786;7.840;2022-07-10T12:14:33;24.10;42.00
21807;DHT22;11065;50.786;7.840;2022-07-10T12:17:03;24.10;42.40
21807;DHT22;11065;50.786;7.840;2022-07-10T12:19:37;24.00;42.30
21807;DHT22;11065;50.786;7.840;2022-07-10T12:22:05;24.00;42.40
21807;DHT22;11065;50.786;7.840;2022-07-10T12:24:32;23.90;42.20
21807;DHT22;11065;50.786;7.840;2022-07-10T12:26:59;23.90;42.30
21807;DHT22;11065;50.786;7.840;2022-07-10T12:29:28;23.80;42.30
21807;DHT22;11065;50.786;7.840;2022-07-10T12:31:57;23.80;42.50
21807;DHT22;11065;50.786;7.840;2022-07-10T12:34:34;23.70;42.40
21807;DHT22;11065;50.786;7.840;2022-07-10T12:37:07;23.60;42.10
21807;DHT22;11065;50.786;7.840;2022-07-10T12:39:37;23.60;42.40
21807;DHT22;11065;50.786;7.840;2022-07-10T12:42:07;23.50;42.60
21807;DHT22;11065;50.786;7.840;2022-07-10T12:44:42;23.50;42.80
21807;DHT22;11065;50.786;7.840;2022-07-10T12:47:11;23.50;42.80
21807;DHT22;11065;50.786;7.840;2022-07-10T12:49:49;23.40;42.80
21807;DHT22;11065;50.786;7.840;2022-07-10T12:52:24;23.40;42.90
21807;DHT22;11065;50.786;7.840;2022-07-10T12:55:22;23.50;43.10
21807;DHT22;11065;50.786;7.840;2022-07-10T12:57:51;23.50;43.10
21807;DHT22;11065;50.786;7.840;2022-07-10T13:00:28;23.50;43.10
21807;DHT22;11065;50.786;7.840;2022-07-10T13:03:01;23.50;43.10
21807;DHT22;11065;50.786;7.840;2022-07-10T13:05:36;23.50;43.20
21807;DHT22;11065;50.786;7.840;2022-07-10T13:10:43;23.40;43.30
21807;DHT22;11065;50.786;7.840;2022-07-10T13:13:10;23.40;43.60
21807;DHT22;11065;50.786;7.840;2022-07-10T13:15:38;23.50;43.70
21807;DHT22;11065;50.786;7.840;2022-07-10T13:18:14;23.60;43.60
21807;DHT22;11065;50.786;7.840;2022-07-10T13:20:42;23.60;43.60
21807;DHT22;11065;50.786;7.840;2022-07-10T13:23:09;23.60;43.50
21807;DHT22;11065;50.786;7.840;2022-07-10T13:25:39;23.70;43.60
21807;DHT22;11065;50.786;7.840;2022-07-10T13:28:07;23.70;43.60
21807;DHT22;11065;50.786;7.840;2022-07-10T13:30:34;23.70;43.50
21807;DHT22;11065;50.786;7.840;2022-07-10T13:33:02;23.70;43.40
21807;DHT22;11065;50.786;7.840;2022-07-10T13:35:30;23.70;43.20
21807;DHT22;11065;50.786;7.840;2022-07-10T13:37:57;23.70;43.20
21807;DHT22;11065;50.786;7.840;2022-07-10T13:40:31;23.60;43.30
21807;DHT22;11065;50.786;7.840;2022-07-10T13:42:58;23.50;43.70
21807;DHT22;11065;50.786;7.840;2022-07-10T13:45:25;23.50;43.70
21807;DHT22;11065;50.786;7.840;2022-07-10T13:47:56;23.50;43.80
21807;DHT22;11065;50.786;7.840;2022-07-10T13:50:24;23.40;43.70
21807;DHT22;11065;50.786;7.840;2022-07-10T13:52:51;23.30;43.70
21807;DHT22;11065;50.786;7.840;2022-07-10T13:55:18;23.40;43.70
21807;DHT22;11065;50.786;7.840;2022-07-10T13:57:45;23.20;43.60
21807;DHT22;11065;50.786;7.840;2022-07-10T14:00:12;23.20;43.90
21807;DHT22;11065;50.786;7.840;2022-07-10T14:02:39;23.00;44.00
21807;DHT22;11065;50.786;7.840;2022-07-10T14:05:06;22.90;44.20
21807;DHT22;11065;50.786;7.840;2022-07-10T14:07:34;22.90;44.40
21807;DHT22;11065;50.786;7.840;2022-07-10T14:10:02;22.90;44.50
21807;DHT22;11065;50.786;7.840;2022-07-10T14:12:29;22.80;44.70
21807;DHT22;11065;50.786;7.840;2022-07-10T14:14:58;22.90;44.70
21807;DHT22;11065;50.786;7.840;2022-07-10T14:17:25;22.90;44.70
21807;DHT22;11065;50.786;7.840;2022-07-10T14:19:52;22.80;44.60
21807;DHT22;11065;50.786;7.840;2022-07-10T14:22:18;22.80;44.70
21807;DHT22;11065;50.786;7.840;2022-07-10T14:24:45;22.90;44.80
21807;DHT22;11065;50.786;7.840;2022-07-10T14:27:12;22.70;44.70
21807;DHT22;11065;50.786;7.840;2022-07-10T14:29:39;22.80;44.70
21807;DHT22;11065;50.786;7.840;2022-07-10T14:32:07;22.70;44.70
21807;DHT22;11065;50.786;7.840;2022-07-10T14:34:34;22.70;44.70
21807;DHT22;11065;50.786;7.840;2022-07-10T14:37:01;22.70;44.70
21807;DHT22;11065;50.786;7.840;2022-07-10T14:39:28;22.60;44.80
21807;DHT22;11065;50.786;7.840;2022-07-10T14:41:55;22.60;44.80
21807;DHT22;11065;50.786;7.840;2022-07-10T14:44:22;22.50;44.90
21807;DHT22;11065;50.786;7.840;2022-07-10T14:46:49;22.40;44.90
21807;DHT22;11065;50.786;7.840;2022-07-10T14:49:16;22.40;45.00
21807;DHT22;11065;50.786;7.840;2022-07-10T14:51:43;22.20;45.00
21807;DHT22;11065;50.786;7.840;2022-07-10T14:54:10;22.10;45.00
21807;DHT22;11065;50.786;7.840;2022-07-10T14:56:37;22.10;45.20
21807;DHT22;11065;50.786;7.840;2022-07-10T14:59:04;22.00;45.30
21807;DHT22;11065;50.786;7.840;2022-07-10T15:01:41;22.00;45.40
21807;DHT22;11065;50.786;7.840;2022-07-10T15:04:08;21.90;45.50
21807;DHT22;11065;50.786;7.840;2022-07-10T15:06:35;21.80;45.60
21807;DHT22;11065;50.786;7.840;2022-07-10T15:09:02;21.70;45.70
21807;DHT22;11065;50.786;7.840;2022-07-10T15:11:29;21.70;45.90
21807;DHT22;11065;50.786;7.840;2022-07-10T15:13:56;21.60;46.00
21807;DHT22;11065;50.786;7.840;2022-07-10T15:16:27;21.50;46.00
21807;DHT22;11065;50.786;7.840;2022-07-10T15:18:54;21.50;46.30
21807;DHT22;11065;50.786;7.840;2022-07-10T15:21:22;21.40;46.40
21807;DHT22;11065;50.786;7.840;2022-07-10T15:23:49;21.30;46.30
21807;DHT22;11065;50.786;7.840;2022-07-10T15:26:16;21.30;46.60
21807;DHT22;11065;50.786;7.840;2022-07-10T15:28:44;21.20;46.80
21807;DHT22;11065;50.786;7.840;2022-07-10T15:31:11;21.20;47.00
21807;DHT22;11065;50.786;7.840;2022-07-10T15:33:38;21.20;47.10
21807;DHT22;11065;50.786;7.840;2022-07-10T15:36:11;21.20;47.10
21807;DHT22;11065;50.786;7.840;2022-07-10T15:38:39;21.20;47.50
21807;DHT22;11065;50.786;7.840;2022-07-10T15:41:07;21.10;47.40
21807;DHT22;11065;50.786;7.840;2022-07-10T15:43:34;21.10;47.50
21807;DHT22;11065;50.786;7.840;2022-07-10T15:46:01;21.10;47.70
21807;DHT22;11065;50.786;7.840;2022-07-10T15:48:28;21.10;47.80
21807;DHT22;11065;50.786;7.840;2022-07-10T15:50:55;21.10;47.80
21807;DHT22;11065;50.786;7.840;2022-07-10T15:53:22;21.00;47.80
21807;DHT22;11065;50.786;7.840;2022-07-10T15:55:49;21.00;47.90
21807;DHT22;11065;50.786;7.840;2022-07-10T15:58:16;21.10;48.00
21807;DHT22;11065;50.786;7.840;2022-07-10T16:00:43;21.00;48.00